createdAt,value
2019-01-23T00:01:56.209Z,-4.10
2019-01-23T00:06:01.269Z,-4.00
2019-01-23T00:10:06.980Z,-4.00
2019-01-23T00:14:12.047Z,-4.00
2019-01-23T00:18:17.189Z,-4.00
2019-01-23T00:22:22.255Z,-4.00
2019-01-23T00:26:27.376Z,-4.00
2019-01-23T00:30:32.453Z,-4.00
2019-01-23T00:34:37.555Z,-4.00
2019-01-23T00:38:42.628Z,-3.90
2019-01-23T00:42:47.738Z,-4.00
2019-01-23T00:46:52.809Z,-4.00
2019-01-23T00:50:57.923Z,-4.10
2019-01-23T00:55:03.062Z,-4.10
2019-01-23T00:59:08.152Z,-4.20
2019-01-23T01:03:13.298Z,-4.20
2019-01-23T01:07:18.482Z,-4.30
2019-01-23T01:11:23.583Z,-4.30
2019-01-23T01:15:28.632Z,-4.40
2019-01-23T01:19:33.740Z,-4.40
2019-01-23T01:23:38.813Z,-4.40
2019-01-23T01:27:43.944Z,-4.40
2019-01-23T01:31:49.020Z,-4.30
2019-01-23T01:35:54.114Z,-4.40
2019-01-23T01:39:59.229Z,-4.40
2019-01-23T01:44:04.313Z,-4.40
2019-01-23T01:48:09.426Z,-4.40
2019-01-23T01:52:14.503Z,-4.50
2019-01-23T01:56:19.602Z,-4.60
2019-01-23T02:00:24.898Z,-4.70
2019-01-23T02:04:30.008Z,-4.70
2019-01-23T02:08:35.131Z,-4.70
2019-01-23T02:12:40.195Z,-4.70
2019-01-23T02:16:45.313Z,-4.70
2019-01-23T02:20:50.400Z,-4.70
2019-01-23T02:24:55.531Z,-4.60
2019-01-23T02:29:00.645Z,-4.70
2019-01-23T02:33:05.717Z,-4.70
2019-01-23T02:37:10.852Z,-4.70
2019-01-23T02:41:15.937Z,-4.80
2019-01-23T02:45:21.076Z,-4.80
2019-01-23T02:49:26.168Z,-4.80
2019-01-23T02:53:31.293Z,-4.80
2019-01-23T02:57:36.388Z,-4.80
2019-01-23T03:01:41.479Z,-4.80
2019-01-23T03:05:46.621Z,-4.80
2019-01-23T03:09:51.705Z,-4.90
2019-01-23T03:13:56.809Z,-4.90
2019-01-23T03:18:01.885Z,-4.90
2019-01-23T03:22:07.021Z,-5.10
2019-01-23T03:26:12.141Z,-5.20
2019-01-23T03:30:19.047Z,-5.30
2019-01-23T03:34:24.139Z,-5.40
2019-01-23T03:38:29.228Z,-5.50
2019-01-23T03:42:34.356Z,-5.60
2019-01-23T03:46:39.432Z,-5.70
2019-01-23T03:50:44.554Z,-5.70
2019-01-23T03:54:49.739Z,-5.70
2019-01-23T03:58:54.827Z,-5.80
2019-01-23T04:02:59.940Z,-5.80
2019-01-23T04:07:05.007Z,-5.90
2019-01-23T04:11:10.105Z,-5.90
2019-01-23T04:15:16.381Z,-5.90
2019-01-23T04:19:21.483Z,-6.00
2019-01-23T04:23:26.616Z,-6.00
2019-01-23T04:27:31.715Z,-6.10
2019-01-23T04:31:36.807Z,-6.10
2019-01-23T04:35:41.939Z,-6.10
2019-01-23T04:39:47.022Z,-6.20
2019-01-23T04:43:52.126Z,-6.20
2019-01-23T04:47:57.268Z,-6.20
2019-01-23T04:52:03.920Z,-6.20
2019-01-23T04:56:09.021Z,-6.20
2019-01-23T05:00:15.718Z,-6.20
2019-01-23T05:04:20.794Z,-6.20
2019-01-23T05:08:25.909Z,-6.10
2019-01-23T05:12:30.968Z,-6.10
2019-01-23T05:16:36.084Z,-6.10
2019-01-23T05:20:41.200Z,-6.00
2019-01-23T05:24:46.307Z,-6.00
2019-01-23T05:28:51.424Z,-6.10
2019-01-23T05:32:56.499Z,-6.10
2019-01-23T05:37:01.626Z,-6.10
2019-01-23T05:41:06.691Z,-5.90
2019-01-23T05:45:13.593Z,-5.80
2019-01-23T05:49:18.711Z,-5.70
2019-01-23T05:53:23.791Z,-5.60
2019-01-23T05:57:28.898Z,-5.50
2019-01-23T06:01:33.976Z,-5.40
2019-01-23T06:05:39.079Z,-5.40
2019-01-23T06:09:44.161Z,-5.30
2019-01-23T06:13:49.251Z,-5.30
2019-01-23T06:17:54.308Z,-5.20
2019-01-23T06:21:59.421Z,-5.20
2019-01-23T06:26:04.494Z,-5.20
2019-01-23T06:30:15.877Z,-5.10
2019-01-23T06:34:21.130Z,-5.20
2019-01-23T06:38:26.166Z,-5.10
2019-01-23T06:42:31.262Z,-5.10
2019-01-23T06:46:36.367Z,-5.10
2019-01-23T06:50:41.432Z,-5.00
2019-01-23T06:54:46.575Z,-4.90
2019-01-23T06:58:51.648Z,-4.90
2019-01-23T07:02:56.676Z,-4.90
2019-01-23T07:07:01.760Z,-4.90
2019-01-23T07:11:06.856Z,-4.70
2019-01-23T07:15:16.050Z,-4.70
2019-01-23T07:19:21.141Z,-4.70
2019-01-23T07:23:26.261Z,-4.70
2019-01-23T07:27:31.327Z,-4.60
2019-01-23T07:31:36.441Z,-4.50
2019-01-23T07:35:41.528Z,-4.40
2019-01-23T07:39:46.737Z,-4.30
2019-01-23T07:43:51.796Z,-4.20
2019-01-23T07:47:56.877Z,-4.30
2019-01-23T07:52:01.987Z,-4.40
2019-01-23T07:56:07.109Z,-4.40
2019-01-23T08:00:21.341Z,-4.30
2019-01-23T08:04:26.452Z,-4.30
2019-01-23T08:08:31.576Z,-4.10
2019-01-23T08:12:36.655Z,-4.00
2019-01-23T08:16:41.849Z,-3.90
2019-01-23T08:20:46.972Z,-3.80
2019-01-23T08:24:52.084Z,-3.80
2019-01-23T08:28:57.188Z,-4.00
2019-01-23T08:33:02.321Z,-4.10
2019-01-23T08:37:07.390Z,-3.90
2019-01-23T08:41:12.515Z,-3.80
2019-01-23T08:45:23.615Z,-3.60
2019-01-23T08:49:29.218Z,-3.70
2019-01-23T08:53:35.194Z,-3.90
2019-01-23T08:57:40.288Z,-3.80
2019-01-23T09:01:45.399Z,-3.90
2019-01-23T09:05:50.482Z,-3.60
2019-01-23T09:09:55.600Z,-3.50
2019-01-23T09:14:00.683Z,-3.40
2019-01-23T09:18:07.062Z,-3.30
2019-01-23T09:22:12.409Z,-3.10
2019-01-23T09:26:17.492Z,-3.10
2019-01-23T09:30:37.464Z,-2.80
2019-01-23T09:34:48.478Z,-2.30
2019-01-23T09:38:59.621Z,-2.40
2019-01-23T09:43:10.765Z,-2.80
2019-01-23T09:47:31.328Z,-2.80
2019-01-23T09:51:59.191Z,-2.90
2019-01-23T09:56:04.271Z,-3.00
2019-01-23T10:00:21.435Z,-3.20
2019-01-23T10:04:26.528Z,-2.80
2019-01-23T10:08:31.640Z,-2.80
2019-01-23T10:12:36.756Z,-2.60
2019-01-23T10:16:41.858Z,-2.30
2019-01-23T10:20:46.972Z,-2.50
2019-01-23T10:24:52.069Z,-1.60
2019-01-23T10:28:57.274Z,-1.40
2019-01-23T10:33:02.355Z,-1.30
2019-01-23T10:37:07.484Z,-1.20
2019-01-23T10:41:12.707Z,-0.30
2019-01-23T10:45:17.802Z,0.30
2019-01-23T10:49:23.127Z,-0.30
2019-01-23T10:53:28.207Z,-0.60
2019-01-23T10:57:33.404Z,-1.20
2019-01-23T11:01:38.711Z,-1.30
2019-01-23T11:05:43.995Z,-1.70
2019-01-23T11:09:49.078Z,-2.70
2019-01-23T11:13:54.243Z,-2.40
2019-01-23T11:17:59.406Z,-2.50
2019-01-23T11:22:04.557Z,-2.90
2019-01-23T11:26:09.627Z,-3.30
2019-01-23T11:30:25.845Z,-3.30
2019-01-23T11:34:30.936Z,-3.40
2019-01-23T11:38:36.024Z,-3.50
2019-01-23T11:42:41.109Z,-3.60
2019-01-23T11:46:46.334Z,-3.70
2019-01-23T11:50:51.419Z,-3.80
2019-01-23T11:54:56.559Z,-3.70
2019-01-23T11:59:01.633Z,-3.60
2019-01-23T12:03:06.943Z,-3.70
2019-01-23T12:07:12.098Z,-3.60
2019-01-23T12:11:17.173Z,-3.60
2019-01-23T12:15:24.418Z,-3.70
2019-01-23T12:19:29.588Z,-3.80
2019-01-23T12:23:34.657Z,-3.70
2019-01-23T12:27:39.765Z,-3.80
2019-01-23T12:31:44.838Z,-3.70
2019-01-23T12:35:50.016Z,-3.80
2019-01-23T12:39:56.117Z,-3.80
2019-01-23T12:44:01.196Z,-3.80
2019-01-23T12:48:06.478Z,-3.90
2019-01-23T12:52:11.574Z,-3.80
2019-01-23T12:56:16.861Z,-3.70
2019-01-23T13:00:24.412Z,-3.70
2019-01-23T13:04:29.470Z,-3.70
2019-01-23T13:08:34.751Z,-3.80
2019-01-23T13:12:39.841Z,-3.80
2019-01-23T13:16:45.033Z,-3.90
2019-01-23T13:20:50.125Z,-3.80
2019-01-23T13:24:55.217Z,-3.70
2019-01-23T13:29:00.494Z,-3.60
2019-01-23T13:33:05.577Z,-3.70
2019-01-23T13:37:10.829Z,-3.80
2019-01-23T13:41:15.899Z,-3.90
2019-01-23T13:45:21.035Z,-3.90
2019-01-23T13:49:26.111Z,-3.80
2019-01-23T13:53:31.409Z,-3.80
2019-01-23T13:57:36.862Z,-3.80
2019-01-23T14:01:42.066Z,-3.80
2019-01-23T14:05:47.218Z,-3.80
2019-01-23T14:09:52.491Z,-3.80
2019-01-23T14:13:57.878Z,-3.80
2019-01-23T14:18:02.962Z,-3.90
2019-01-23T14:22:08.145Z,-3.90
2019-01-23T14:26:13.312Z,-4.00
2019-01-23T14:30:24.377Z,-4.00
2019-01-23T14:34:29.799Z,-4.00
2019-01-23T14:38:36.105Z,-4.00
2019-01-23T14:42:41.306Z,-4.00
2019-01-23T14:46:46.660Z,-3.90
2019-01-23T14:50:51.944Z,-3.80
2019-01-23T14:54:57.299Z,-3.80
2019-01-23T14:59:02.344Z,-3.80
2019-01-23T15:03:07.538Z,-3.80
2019-01-23T15:07:12.755Z,-3.90
2019-01-23T15:11:18.181Z,-3.90
2019-01-23T15:15:23.274Z,-3.90
2019-01-23T15:19:29.091Z,-3.90
2019-01-23T15:23:34.547Z,-3.80
2019-01-23T15:27:39.901Z,-3.80
2019-01-23T15:31:45.447Z,-3.80
2019-01-23T15:35:52.171Z,-3.90
2019-01-23T15:39:58.412Z,-3.90
2019-01-23T15:44:03.854Z,-3.90
2019-01-23T15:48:10.847Z,-3.80
2019-01-23T15:52:16.299Z,-3.80
2019-01-23T15:56:22.320Z,-3.80
2019-01-23T16:00:30.392Z,-3.80
2019-01-23T16:04:35.876Z,-3.80
2019-01-23T16:08:41.396Z,-3.80
2019-01-23T16:12:48.133Z,-3.80
2019-01-23T16:16:53.519Z,-3.80
2019-01-23T16:21:00.126Z,-3.70
2019-01-23T16:25:08.168Z,-3.70
2019-01-23T16:29:13.910Z,-3.60
2019-01-23T16:33:20.965Z,-3.70
2019-01-23T16:37:26.724Z,-3.70
2019-01-23T16:41:32.218Z,-3.70
2019-01-23T16:45:41.110Z,-3.70
2019-01-23T16:49:48.221Z,-3.60
2019-01-23T16:53:55.805Z,-3.70
2019-01-23T16:58:01.607Z,-3.60
2019-01-23T17:02:07.225Z,-3.60
2019-01-23T17:06:12.780Z,-3.60
2019-01-23T17:10:21.782Z,-3.60
2019-01-23T17:14:27.281Z,-3.60
2019-01-23T17:18:33.032Z,-3.50
2019-01-23T17:22:38.621Z,-3.50
2019-01-23T17:26:45.672Z,-3.50
2019-01-23T17:30:52.662Z,-3.60
2019-01-23T17:34:59.324Z,-3.60
2019-01-23T17:39:08.090Z,-3.70
2019-01-23T17:43:14.653Z,-3.70
2019-01-23T17:47:21.889Z,-3.70
2019-01-23T17:51:28.567Z,-3.70
2019-01-23T17:55:36.305Z,-3.70
2019-01-23T17:59:44.248Z,-3.70
2019-01-23T18:03:50.769Z,-3.60
2019-01-23T18:07:56.384Z,-3.60
2019-01-23T18:12:01.885Z,-3.60
2019-01-23T18:16:07.426Z,-3.60
2019-01-23T18:20:16.140Z,-3.60
2019-01-23T18:24:22.737Z,-3.60
2019-01-23T18:28:28.353Z,-3.60
2019-01-23T18:32:34.007Z,-3.60
2019-01-23T18:36:48.091Z,-3.70
2019-01-23T18:41:19.427Z,-3.70
2019-01-23T18:45:28.338Z,-3.70
2019-01-23T18:49:42.979Z,-3.60
2019-01-23T18:53:49.199Z,-3.70
2019-01-23T18:57:54.654Z,-3.70
2019-01-23T19:02:00.720Z,-3.60
2019-01-23T19:06:08.735Z,-3.60
2019-01-23T19:10:18.828Z,-3.30
2019-01-23T19:14:24.733Z,-3.40
2019-01-23T19:18:31.728Z,-3.60
2019-01-23T19:22:39.575Z,-3.60
2019-01-23T19:26:45.124Z,-3.60
2019-01-23T19:30:50.663Z,-3.50
2019-01-23T19:34:56.427Z,-3.50
2019-01-23T19:39:02.284Z,-3.50
2019-01-23T19:43:07.856Z,-3.40
2019-01-23T19:47:13.499Z,-3.40
2019-01-23T19:51:21.224Z,-3.30
2019-01-23T19:55:29.116Z,-3.30
2019-01-23T19:59:34.569Z,-3.40
2019-01-23T20:03:41.983Z,-3.30
2019-01-23T20:07:48.897Z,-3.30
2019-01-23T20:11:54.510Z,-3.30
2019-01-23T20:16:00.170Z,-3.30
2019-01-23T20:20:09.202Z,-3.20
2019-01-23T20:24:14.963Z,-3.20
2019-01-23T20:28:20.417Z,-3.10
2019-01-23T20:32:25.973Z,-3.10
2019-01-23T20:36:31.511Z,-3.10
2019-01-23T20:40:37.288Z,-3.10
2019-01-23T20:44:42.843Z,-3.00
2019-01-23T20:48:48.600Z,-3.00
2019-01-23T20:52:54.156Z,-3.00
2019-01-23T20:57:00.018Z,-3.00
2019-01-23T21:01:06.293Z,-2.90
2019-01-23T21:05:12.768Z,-3.00
2019-01-23T21:09:20.785Z,-2.90
2019-01-23T21:13:28.076Z,-2.90
2019-01-23T21:17:35.235Z,-2.80
2019-01-23T21:21:43.264Z,-2.80
2019-01-23T21:25:49.248Z,-2.80
2019-01-23T21:29:54.804Z,-2.80
2019-01-23T21:34:00.206Z,-2.70
2019-01-23T21:38:05.915Z,-2.70
2019-01-23T21:42:11.365Z,-2.70
2019-01-23T21:46:17.039Z,-2.70
2019-01-23T21:50:25.973Z,-2.80
2019-01-23T21:54:31.551Z,-2.70
2019-01-23T21:58:36.968Z,-2.70
2019-01-23T22:02:42.424Z,-2.60
2019-01-23T22:06:47.871Z,-2.60
2019-01-23T22:10:53.326Z,-2.60
2019-01-23T22:14:58.778Z,-2.60
2019-01-23T22:19:04.130Z,-2.60
2019-01-23T22:23:09.219Z,-2.60
2019-01-23T22:27:14.380Z,-2.60
2019-01-23T22:31:19.629Z,-2.60
2019-01-23T22:35:24.915Z,-2.60
2019-01-23T22:39:30.035Z,-2.50
2019-01-23T22:43:35.250Z,-2.60
2019-01-23T22:47:40.416Z,-2.50
2019-01-23T22:51:46.549Z,-2.60
2019-01-23T22:55:51.679Z,-2.60
2019-01-23T22:59:56.748Z,-2.60
2019-01-23T23:04:03.402Z,-2.60
2019-01-23T23:08:08.747Z,-2.60
2019-01-23T23:12:13.836Z,-2.60
2019-01-23T23:16:18.915Z,-2.60
2019-01-23T23:20:25.452Z,-2.60
2019-01-23T23:24:30.529Z,-2.60
2019-01-23T23:28:35.627Z,-2.60
2019-01-23T23:32:40.744Z,-2.60
2019-01-23T23:36:45.818Z,-2.60
2019-01-23T23:40:50.929Z,-2.60
2019-01-23T23:44:55.994Z,-2.60
2019-01-23T23:49:01.106Z,-2.60
2019-01-23T23:53:06.324Z,-2.50
2019-01-23T23:57:11.401Z,-2.50
